Time;durP1;ratioP1;P1;durP2;ratioP2;P2;SDS_P1;SDS_P2;PMS_P1;PMS_P2;Temp;Humidity;BMP_temperature;BMP_pressure;BME280_temperature;BME280_humidity;BME280_pressure;Samples;Min_cycle;Max_cycle;Signal;HPM_P1;HPM_P2
2022/10/09 00:01:10;;;;;;;9.07;2.47;;;;;;;17.51;54.39;99134.63;5091806;28;20382;-45
2022/10/09 00:03:37;;;;;;;11.43;2.20;;;;;;;17.45;54.44;99135.56;5091916;28;20061;-45
2022/10/09 00:06:05;;;;;;;5.95;2.17;;;;;;;17.43;54.49;99129.69;5090457;28;20054;-45
2022/10/09 00:08:32;;;;;;;13.75;4.22;;;;;;;17.46;54.55;99139.81;5090454;28;20601;-45
2022/10/09 00:10:58;;;;;;;10.75;2.58;;;;;;;17.47;54.45;99136.16;5090385;28;20027;-45
2022/10/09 00:13:23;;;;;;;11.02;3.47;;;;;;;17.47;54.63;99132.69;5091764;28;20067;-45
2022/10/09 00:15:49;;;;;;;6.80;2.42;;;;;;;17.45;54.63;99135.56;5091803;28;20397;-45
2022/10/09 00:18:17;;;;;;;15.90;2.30;;;;;;;17.44;54.78;99138.47;5090096;28;20051;-45
2022/10/09 00:20:45;;;;;;;8.93;2.38;;;;;;;17.47;54.96;99135.34;5091656;28;20381;-45
2022/10/09 00:23:13;;;;;;;6.68;2.40;;;;;;;17.50;54.48;99129.56;5091643;28;20024;-45
2022/10/09 00:25:48;;;;;;;9.15;2.15;;;;;;;17.50;54.35;99134.88;5091490;28;20585;-45
2022/10/09 00:28:14;;;;;;;;;;;;;;;17.45;54.30;99132.13;5092074;28;20028;-45
2022/10/09 00:30:39;;;;;;;12.75;2.85;;;;;;;17.36;54.89;99129.84;5091571;28;20392;-45
2022/10/09 00:33:05;;;;;;;8.73;2.00;;;;;;;17.49;54.40;99133.28;5090262;28;20029;-45
2022/10/09 00:35:30;;;;;;;9.10;2.03;;;;;;;17.49;54.59;99123.47;5090187;28;20417;-45
2022/10/09 00:37:56;;;;;;;7.28;1.77;;;;;;;17.38;54.39;99121.63;5091541;28;20127;-45
2022/10/09 00:40:24;;;;;;;10.75;1.98;;;;;;;17.34;54.81;99126.63;5091541;28;20027;-45
2022/10/09 00:42:57;;;;;;;11.60;2.78;;;;;;;17.32;54.80;99123.34;5090158;28;20416;-45
2022/10/09 00:45:24;;;;;;;12.88;2.60;;;;;;;17.43;54.59;99131.56;5090127;28;20029;-45
2022/10/09 00:47:54;;;;;;;7.45;2.25;;;;;;;17.52;54.41;99120.31;5090181;28;20512;-45
2022/10/09 00:50:51;;;;;;;11.18;2.42;;;;;;;17.53;54.24;99116.63;5091474;28;20020;-45
2022/10/09 00:53:21;;;;;;;8.75;2.10;;;;;;;17.44;54.43;99117.22;5090817;28;20463;-45
2022/10/09 00:55:46;;;;;;;6.80;1.83;;;;;;;17.40;54.82;99113.44;5091372;28;20053;-45
2022/10/09 00:58:13;;;;;;;10.32;1.85;;;;;;;17.52;54.85;99111.56;5090601;28;20490;-45
2022/10/09 01:00:39;;;;;;;10.85;2.25;;;;;;;17.78;54.22;99118.97;5095083;28;20031;-45
2022/10/09 01:03:05;;;;;;;6.55;2.20;;;;;;;17.34;53.81;99113.34;5093951;28;20032;-45
2022/10/09 01:05:33;;;;;;;6.90;1.52;;;;;;;17.10;55.53;99109.91;5094879;28;20375;-45
2022/10/09 01:08:12;;;;;;;5.25;2.03;;;;;;;16.93;55.34;99103.69;5093596;28;20031;-45
2022/10/09 01:10:53;;;;;;;7.15;2.10;;;;;;;16.61;55.83;99101.34;5094864;28;20115;-45
2022/10/09 01:13:40;;;;;;;5.00;1.83;;;;;;;16.41;56.97;99104.31;5094878;28;20136;-45
2022/10/09 01:16:14;;;;;;;5.18;2.00;;;;;;;16.12;57.82;99104.16;5094765;28;20020;-45
2022/10/09 01:18:49;;;;;;;8.88;2.35;;;;;;;16.41;58.14;99101.66;5094536;28;20123;-45
2022/10/09 01:21:35;;;;;;;;;;;;;;;16.72;57.08;99102.38;5093754;28;20040;-45
2022/10/09 01:24:07;;;;;;;6.45;2.03;;;;;;;17.00;55.91;99103.56;5094085;28;19919;-45
2022/10/09 01:26:54;;;;;;;11.02;2.70;;;;;;;16.89;56.06;99103.34;5093283;28;20068;-45
2022/10/09 01:29:22;;;;;;;8.90;2.50;;;;;;;16.81;56.30;99095.75;5094552;28;20124;-45
2022/10/09 01:31:50;;;;;;;14.23;2.45;;;;;;;16.72;56.59;99103.22;5093387;28;20047;-45
2022/10/09 01:34:19;;;;;;;12.70;2.70;;;;;;;16.75;56.52;99094.78;5094367;28;20533;-45
2022/10/09 01:36:45;;;;;;;11.48;2.40;;;;;;;16.63;56.66;99091.31;5093046;28;20030;-45
2022/10/09 01:39:18;;;;;;;5.65;2.13;;;;;;;16.56;57.10;99086.16;5094341;28;20024;-45
2022/10/09 01:41:47;;;;;;;7.65;2.30;;;;;;;16.62;57.02;99081.78;5092947;28;20051;-45
2022/10/09 01:44:18;;;;;;;11.90;2.35;;;;;;;16.50;57.04;99087.06;5092809;28;20055;-45
2022/10/09 01:46:44;;;;;;;8.75;2.00;;;;;;;16.47;57.23;99086.72;5092858;28;20039;-45
2022/10/09 01:49:31;;;;;;;6.70;1.85;;;;;;;16.48;57.02;99083.00;5094148;28;20016;-46
2022/10/09 01:52:34;;;;;;;10.13;2.15;;;;;;;16.36;57.41;99075.88;5094080;28;20106;-45
2022/10/09 01:55:31;;;;;;;5.45;2.00;;;;;;;16.35;57.61;99076.09;5092615;28;20578;-47
2022/10/09 01:58:08;;;;;;;11.88;2.10;;;;;;;16.20;57.90;99075.72;5093924;28;20024;-47
2022/10/09 02:00:38;;;;;;;7.30;2.13;;;;;;;16.14;58.44;99077.44;5093938;28;20031;-47
2022/10/09 02:03:08;;;;;;;9.35;2.60;;;;;;;16.16;58.35;99070.88;5093855;28;20036;-47
2022/10/09 02:05:36;;;;;;;5.88;2.33;;;;;;;16.04;58.60;99071.91;5093634;28;20020;-47
2022/10/09 02:08:02;;;;;;;6.65;2.42;;;;;;;16.01;58.82;99072.34;5093719;28;20058;-47
2022/10/09 02:10:33;;;;;;;11.38;2.30;;;;;;;15.91;59.03;99067.59;5092641;28;20362;-47
2022/10/09 02:12:59;;;;;;;15.40;2.70;;;;;;;15.88;59.51;99063.56;5093676;28;20444;-47
2022/10/09 02:15:44;;;;;;;6.40;1.48;;;;;;;16.01;59.20;99070.50;5092314;28;20527;-47
2022/10/09 02:18:13;;;;;;;8.35;2.75;;;;;;;16.07;58.54;99066.94;5093390;28;20067;-47
2022/10/09 02:20:44;;;;;;;8.63;2.22;;;;;;;16.08;58.88;99067.75;5093467;28;20077;-47
2022/10/09 02:23:13;;;;;;;8.43;1.90;;;;;;;16.10;58.85;99066.50;5093771;28;20028;-47
2022/10/09 02:25:40;;;;;;;9.63;2.40;;;;;;;16.07;58.85;99060.84;5093345;28;20073;-47
2022/10/09 02:28:06;;;;;;;4.22;2.25;;;;;;;16.05;59.03;99060.25;5093291;28;20035;-47
2022/10/09 02:30:50;;;;;;;6.70;2.42;;;;;;;16.16;58.88;99056.84;5091998;28;20029;-47
2022/10/09 02:33:15;;;;;;;10.02;2.30;;;;;;;16.38;58.33;99052.59;5092184;28;20559;-47
2022/10/09 02:35:42;;;;;;;8.48;2.65;;;;;;;16.47;57.53;99065.50;5091853;28;20032;-47
2022/10/09 02:38:08;;;;;;;7.03;2.30;;;;;;;16.28;57.98;99057.66;5093186;28;20089;-47
2022/10/09 02:40:33;;;;;;;10.13;2.53;;;;;;;16.28;58.12;99056.84;5092069;28;20469;-47
2022/10/09 02:42:59;;;;;;;7.78;2.72;;;;;;;16.29;58.15;99058.47;5093095;28;20023;-47
2022/10/09 02:45:24;;;;;;;7.35;2.40;;;;;;;16.15;58.08;99057.88;5091625;28;20036;-47
2022/10/09 02:47:50;;;;;;;6.38;2.20;;;;;;;16.06;58.35;99053.94;5092919;28;20050;-47
2022/10/09 02:50:16;;;;;;;8.70;3.05;;;;;;;16.10;58.52;99057.75;5091621;28;20024;-47
2022/10/09 02:52:42;;;;;;;9.45;2.75;;;;;;;16.10;58.60;99049.81;5092901;28;20055;-47
2022/10/09 02:55:07;;;;;;;9.32;2.20;;;;;;;15.95;58.09;99058.16;5091805;28;20113;-47
2022/10/09 02:57:33;;;;;;;9.32;2.95;;;;;;;15.58;58.98;99060.88;5092822;28;20024;-47
2022/10/09 02:59:58;;;;;;;13.02;2.92;;;;;;;15.57;59.99;99067.19;5091440;28;20146;-47
2022/10/09 03:02:25;;;;;;;6.50;2.70;;;;;;;15.77;59.89;99056.38;5092688;28;20073;-47
2022/10/09 03:04:50;;;;;;;7.63;2.53;;;;;;;16.03;58.90;99057.84;5092545;28;20028;-47
2022/10/09 03:07:16;;;;;;;8.35;2.72;;;;;;;16.03;58.38;99065.78;5092605;28;20114;-47
2022/10/09 03:09:41;;;;;;;5.47;2.30;;;;;;;15.82;58.51;99069.75;5092602;28;20024;-47
2022/10/09 03:12:07;;;;;;;8.35;2.38;;;;;;;15.74;59.00;99064.78;5091196;28;20026;-47
2022/10/09 03:14:33;;;;;;;9.82;2.88;;;;;;;15.78;58.63;99069.38;5091490;28;20039;-47
2022/10/09 03:16:59;;;;;;;7.80;3.20;;;;;;;15.52;58.79;99072.34;5092183;28;20027;-48
2022/10/09 03:19:25;;;;;;;8.95;2.40;;;;;;;15.54;59.61;99068.44;5091102;28;20036;-47
2022/10/09 03:21:50;;;;;;;13.40;2.90;;;;;;;15.55;59.64;99061.31;5090783;28;20420;-47
2022/10/09 03:24:19;;;;;;;8.02;3.03;;;;;;;15.55;59.57;99074.53;5090987;28;20020;-47
2022/10/09 03:26:45;;;;;;;6.20;2.38;;;;;;;15.45;59.49;99069.78;5092242;28;20289;-47
2022/10/09 03:29:10;;;;;;;6.07;2.25;;;;;;;15.46;60.29;99067.97;5092314;28;20022;-47
2022/10/09 03:31:36;;;;;;;9.70;2.50;;;;;;;15.57;60.24;99072.47;5090886;28;20024;-47
2022/10/09 03:34:01;;;;;;;9.45;3.20;;;;;;;15.58;59.78;99066.97;5092193;28;20023;-47
2022/10/09 03:36:27;;;;;;;7.20;2.42;;;;;;;15.59;60.30;99073.06;5092133;28;20082;-47
2022/10/09 03:38:53;;;;;;;5.60;2.67;;;;;;;15.73;59.90;99074.53;5090821;28;20016;-47
2022/10/09 03:41:18;;;;;;;6.20;2.35;;;;;;;15.73;59.61;99068.44;5092097;28;20020;-47
2022/10/09 03:43:44;;;;;;;8.27;2.70;;;;;;;15.61;59.67;99067.56;5092045;28;20371;-47
2022/10/09 03:46:09;;;;;;;15.68;3.00;;;;;;;15.53;60.42;99069.50;5090639;28;20032;-47
2022/10/09 03:48:35;;;;;;;7.40;2.70;;;;;;;15.60;60.02;99068.59;5091961;28;20099;-47
2022/10/09 03:51:01;;;;;;;9.65;2.50;;;;;;;15.66;60.48;99073.81;5092175;28;20043;-47
2022/10/09 03:53:27;;;;;;;7.30;2.70;;;;;;;15.79;59.81;99072.84;5091951;28;20066;-47
2022/10/09 03:55:53;;;;;;;6.60;2.55;;;;;;;15.79;59.57;99072.84;5091892;28;20451;-47
2022/10/09 03:58:18;;;;;;;6.88;2.47;;;;;;;15.56;59.52;99074.31;5090575;28;20073;-47
2022/10/09 04:00:45;;;;;;;7.22;2.92;;;;;;;15.41;59.92;99073.91;5091873;28;20028;-47
2022/10/09 04:03:11;;;;;;;7.18;2.83;;;;;;;15.45;60.39;99074.25;5092064;28;20060;-48
2022/10/09 04:05:37;;;;;;;5.45;2.45;;;;;;;15.45;60.50;99076.91;5091756;28;20052;-47
2022/10/09 04:08:02;;;;;;;15.85;3.28;;;;;;;15.50;60.36;99077.06;5091887;28;20052;-47
2022/10/09 04:10:28;;;;;;;11.43;3.10;;;;;;;15.53;60.26;99077.44;5091691;28;20496;-47
2022/10/09 04:12:54;;;;;;;7.57;3.45;;;;;;;15.54;60.19;99076.38;5090429;28;20077;-47
2022/10/09 04:15:20;;;;;;;9.93;3.03;;;;;;;15.62;60.46;99069.19;5090463;28;20440;-47
2022/10/09 04:17:45;;;;;;;8.00;3.08;;;;;;;15.70;59.78;99074.16;5091395;28;20594;-47
2022/10/09 04:20:11;;;;;;;17.20;3.78;;;;;;;15.64;60.02;99075.84;5091713;28;20027;-48
2022/10/09 04:22:37;;;;;;;8.70;3.17;;;;;;;15.71;59.63;99073.91;5090493;28;20095;-47
2022/10/09 04:25:02;;;;;;;9.95;3.17;;;;;;;15.54;59.16;99071.09;5091501;28;20020;-47
2022/10/09 04:27:29;;;;;;;11.63;3.53;;;;;;;15.36;60.14;99069.28;5090333;28;20028;-47
2022/10/09 04:29:55;;;;;;;10.45;2.90;;;;;;;15.38;60.30;99077.78;5091569;28;20504;-48
2022/10/09 04:32:20;;;;;;;9.07;3.30;;;;;;;15.30;60.29;99072.81;5090227;28;20113;-48
2022/10/09 04:34:46;;;;;;;11.10;3.63;;;;;;;15.19;60.49;99070.88;5094707;28;20161;-47
2022/10/09 04:37:11;;;;;;;6.65;2.97;;;;;;;15.20;60.84;99071.72;5094179;28;20031;-47
2022/10/09 04:39:37;;;;;;;11.07;3.35;;;;;;;15.26;60.75;99063.72;5094408;28;20060;-48
2022/10/09 04:42:03;;;;;;;12.68;3.90;;;;;;;15.25;60.83;99070.03;5094153;28;20069;-48
2022/10/09 04:44:28;;;;;;;8.20;2.83;;;;;;;15.21;61.19;99070.69;5095286;28;20028;-48
2022/10/09 04:46:54;;;;;;;9.52;3.10;;;;;;;15.28;61.81;99063.50;5095277;28;20537;-48
2022/10/09 04:49:20;;;;;;;7.18;2.30;;;;;;;15.47;60.60;99065.06;5095332;28;20020;-47
2022/10/09 04:51:46;;;;;;;8.82;4.30;;;;;;;15.32;60.81;99068.09;5093848;28;20501;-47
2022/10/09 04:54:12;;;;;;;8.70;3.38;;;;;;;15.44;61.23;99070.03;5093870;28;20016;-47
2022/10/09 04:56:38;;;;;;;7.60;2.90;;;;;;;15.50;60.76;99062.00;5095166;28;20024;-47
2022/10/09 04:59:03;;;;;;;12.18;2.92;;;;;;;15.42;61.16;99066.78;5095128;28;20028;-47
2022/10/09 05:01:30;;;;;;;8.20;3.28;;;;;;;15.33;60.62;99053.03;5095042;28;20036;-47
2022/10/09 05:03:56;;;;;;;7.00;3.17;;;;;;;15.30;61.10;99056.16;5093705;28;20036;-47
2022/10/09 05:06:22;;;;;;;13.48;3.60;;;;;;;15.07;60.88;99044.41;5094813;28;20069;-47
2022/10/09 05:08:48;;;;;;;15.90;3.83;;;;;;;14.84;61.73;99068.03;5093559;28;20043;-48
2022/10/09 05:11:16;;;;;;;9.88;3.90;;;;;;;14.85;62.36;99064.34;5093873;28;20493;-47
2022/10/09 05:13:48;;;;;;;9.00;2.80;;;;;;;15.09;62.50;99057.38;5095116;28;20428;-47
2022/10/09 05:16:20;;;;;;;7.57;3.10;;;;;;;15.20;61.46;99058.50;5093862;28;20170;-47
2022/10/09 05:18:49;;;;;;;6.90;3.70;;;;;;;15.08;61.03;99064.50;5093101;28;20043;-47
2022/10/09 05:21:15;;;;;;;7.95;3.30;;;;;;;14.85;61.25;99075.75;5093334;28;20558;-47
2022/10/09 05:23:41;;;;;;;8.25;3.95;;;;;;;14.70;61.72;99072.63;5093318;28;20073;-47
2022/10/09 05:26:11;;;;;;;9.63;3.30;;;;;;;14.56;62.18;99074.56;5093155;28;20020;-47
2022/10/09 05:28:36;;;;;;;9.45;3.63;;;;;;;14.28;62.51;99075.78;5094505;28;20028;-47
2022/10/09 05:31:04;;;;;;;9.55;3.15;;;;;;;14.09;63.04;99069.63;5093145;28;20023;-47
2022/10/09 05:33:30;;;;;;;9.40;3.35;;;;;;;13.99;63.40;99070.09;5094522;28;20026;-47
2022/10/09 05:35:58;;;;;;;8.90;3.58;;;;;;;13.93;64.03;99070.94;5093117;28;20103;-47
2022/10/09 05:38:25;;;;;;;10.75;3.55;;;;;;;14.02;64.02;99066.22;5093305;28;20032;-47
2022/10/09 05:40:52;;;;;;;7.20;3.70;;;;;;;13.99;64.41;99064.00;5092963;28;20060;-47
2022/10/09 05:43:18;;;;;;;7.72;3.03;;;;;;;14.11;64.38;99066.78;5094273;28;20480;-48
2022/10/09 05:45:43;;;;;;;12.00;3.58;;;;;;;14.18;63.94;99065.72;5092775;28;20024;-47
2022/10/09 05:48:09;;;;;;;10.23;3.50;;;;;;;14.19;64.02;99075.25;5076103;28;20039;-47
2022/10/09 05:50:34;;;;;;;7.15;3.25;;;;;;;14.17;63.94;99063.28;5093151;28;20065;-47
2022/10/09 05:53:01;;;;;;;11.48;3.53;;;;;;;14.21;63.99;99069.75;5092792;28;20032;-47
2022/10/09 05:55:27;;;;;;;11.63;3.95;;;;;;;14.21;63.74;99061.03;5094032;28;20024;-47
2022/10/09 05:57:52;;;;;;;14.80;4.18;;;;;;;14.19;64.19;99064.69;5093983;28;20035;-47
2022/10/09 06:00:18;;;;;;;12.68;4.00;;;;;;;14.28;64.03;99064.41;5092925;28;20524;-47
2022/10/09 06:02:44;;;;;;;10.52;3.78;;;;;;;14.26;64.04;99064.63;5092863;28;20184;-47
2022/10/09 06:05:10;;;;;;;30.90;5.00;;;;;;;14.23;63.86;99062.44;5093998;28;20024;-47
2022/10/09 06:07:36;;;;;;;125.22;10.05;;;;;;;14.16;63.97;99066.94;5093686;28;20493;-47
2022/10/09 06:10:02;;;;;;;78.75;6.93;;;;;;;14.05;64.44;99065.00;5093755;28;20194;-47
2022/10/09 06:12:28;;;;;;;106.15;8.73;;;;;;;13.98;64.64;99057.09;5092545;28;20185;-47
2022/10/09 06:14:54;;;;;;;45.72;5.88;;;;;;;14.10;65.10;99063.31;5093616;28;20107;-47
2022/10/09 06:17:19;;;;;;;18.42;3.70;;;;;;;14.21;64.69;99050.47;5093147;28;20050;-48
2022/10/09 06:19:45;;;;;;;16.33;3.40;;;;;;;14.17;64.41;99060.66;5092337;28;20425;-47
2022/10/09 06:22:11;;;;;;;10.25;3.83;;;;;;;14.28;65.34;99054.66;5093497;28;20052;-47
2022/10/09 06:24:36;;;;;;;11.30;3.67;;;;;;;14.55;64.51;99057.91;5093357;28;20020;-47
2022/10/09 06:27:02;;;;;;;13.07;3.63;;;;;;;14.57;63.72;99058.50;5092198;28;20031;-47
2022/10/09 06:29:29;;;;;;;7.80;3.63;;;;;;;14.65;63.60;99059.25;5093359;28;20389;-47
2022/10/09 06:31:55;;;;;;;18.67;3.90;;;;;;;14.58;63.76;99054.03;5093251;28;20505;-47
2022/10/09 06:34:24;;;;;;;12.25;4.30;;;;;;;14.74;64.29;99063.25;5091985;28;20024;-47
2022/10/09 06:36:49;;;;;;;13.30;3.58;;;;;;;14.96;63.84;99056.50;5093190;28;20024;-47
2022/10/09 06:39:15;;;;;;;17.40;4.07;;;;;;;15.24;63.23;99057.84;5091894;28;20021;-47
2022/10/09 06:41:41;;;;;;;9.13;4.10;;;;;;;15.34;62.76;99066.06;5093098;28;20401;-47
2022/10/09 06:44:09;;;;;;;14.35;3.83;;;;;;;15.44;62.60;99056.78;5093129;28;20016;-47
2022/10/09 06:46:38;;;;;;;11.73;4.38;;;;;;;15.50;61.92;99059.34;5092987;28;20040;-47
2022/10/09 06:49:06;;;;;;;17.42;3.97;;;;;;;15.43;62.07;99065.75;5091689;28;20021;-47
2022/10/09 06:51:33;;;;;;;9.27;5.13;;;;;;;15.45;61.73;99068.97;5092903;28;20024;-47
2022/10/09 06:54:01;;;;;;;8.75;4.35;;;;;;;15.50;61.75;99077.06;5074794;28;20397;-47
2022/10/09 06:56:30;;;;;;;14.45;4.40;;;;;;;15.67;61.13;99078.03;5092213;28;20020;-47
2022/10/09 06:59:02;;;;;;;11.90;5.28;;;;;;;15.66;60.53;99075.66;5091513;28;20016;-48
2022/10/09 07:01:30;;;;;;;13.25;4.22;;;;;;;15.62;60.67;99077.91;5091378;28;20065;-47
2022/10/09 07:03:59;;;;;;;9.98;4.20;;;;;;;15.67;60.76;99082.53;5092875;28;20031;-48
2022/10/09 07:06:30;;;;;;;21.30;5.95;;;;;;;15.82;61.31;99087.47;5092566;28;20379;-47
2022/10/09 07:08:58;;;;;;;17.80;5.32;;;;;;;16.11;60.54;99083.97;5091353;28;20028;-47
2022/10/09 07:11:27;;;;;;;17.02;5.90;;;;;;;16.10;59.66;99079.72;5092528;28;20028;-47
2022/10/09 07:13:56;;;;;;;10.40;5.15;;;;;;;15.78;59.71;99085.25;5092477;28;20031;-47
2022/10/09 07:16:28;;;;;;;19.27;9.15;;;;;;;15.58;60.99;99085.50;5091445;28;20143;-47
2022/10/09 07:18:54;;;;;;;8.35;4.25;;;;;;;15.87;60.05;99077.81;5090931;28;20515;-47
2022/10/09 07:21:20;;;;;;;15.10;7.32;;;;;;;16.07;60.07;99076.72;5092418;28;20050;-47
2022/10/09 07:23:46;;;;;;;10.55;5.60;;;;;;;16.32;59.27;99085.31;5091361;28;20119;-47
2022/10/09 07:26:15;;;;;;;21.35;5.38;;;;;;;16.33;58.44;99081.63;5092243;28;20553;-47
2022/10/09 07:28:41;;;;;;;17.27;4.78;;;;;;;16.24;59.10;99075.06;5090926;28;20490;-47
2022/10/09 07:31:07;;;;;;;9.50;4.15;;;;;;;16.34;58.96;99088.53;5091227;28;20398;-47
2022/10/09 07:33:33;;;;;;;14.82;3.58;;;;;;;16.19;58.83;99088.16;5092193;28;20493;-47
2022/10/09 07:36:00;;;;;;;11.13;4.03;;;;;;;16.08;59.21;99091.59;5092151;28;20069;-47
2022/10/09 07:38:27;;;;;;;9.77;3.95;;;;;;;16.08;58.59;99084.44;5092086;28;20460;-47
2022/10/09 07:40:53;;;;;;;11.30;4.18;;;;;;;16.10;59.05;99082.38;5092110;28;20024;-47
2022/10/09 07:43:21;;;;;;;8.13;4.30;;;;;;;16.52;58.71;99089.47;5092167;28;20024;-48
2022/10/09 07:45:46;;;;;;;16.83;4.40;;;;;;;16.80;58.15;99086.13;5091882;28;20490;-47
2022/10/09 07:48:12;;;;;;;8.88;3.90;;;;;;;17.14;57.56;99087.19;5092039;28;20028;-47
2022/10/09 07:50:38;;;;;;;14.23;4.13;;;;;;;17.39;56.85;99080.00;5091993;28;20024;-47
2022/10/09 07:53:04;;;;;;;14.75;5.15;;;;;;;17.48;56.82;99083.88;5090780;28;20024;-48
2022/10/09 07:55:29;;;;;;;7.63;4.53;;;;;;;17.69;56.10;99077.94;5091889;28;20100;-47
2022/10/09 07:57:55;;;;;;;10.00;4.18;;;;;;;17.79;55.65;99082.63;5091919;28;20036;-48
2022/10/09 08:00:21;;;;;;;12.30;4.47;;;;;;;17.75;55.13;99081.50;5092127;28;20023;-47
2022/10/09 08:02:46;;;;;;;26.45;23.05;;;;;;;17.85;55.17;99087.00;5091900;28;20095;-47
2022/10/09 08:05:12;;;;;;;11.82;6.82;;;;;;;17.91;54.94;99079.94;5091760;28;20024;-47
2022/10/09 08:07:38;;;;;;;8.93;5.40;;;;;;;17.99;54.22;99082.22;5091807;28;20493;-47
2022/10/09 08:10:04;;;;;;;13.68;7.88;;;;;;;18.00;54.04;99078.50;5094405;28;20024;-47
2022/10/09 08:12:29;;;;;;;11.55;5.07;;;;;;;18.09;53.79;99082.38;5094805;28;20099;-47
2022/10/09 08:14:55;;;;;;;9.38;4.55;;;;;;;18.14;53.53;99079.00;5095979;28;20173;-47
2022/10/09 08:17:21;;;;;;;10.85;5.50;;;;;;;18.00;53.33;99077.72;5095634;28;20032;-47
2022/10/09 08:19:46;;;;;;;19.23;6.55;;;;;;;17.92;54.20;99081.53;5094613;28;20031;-48
2022/10/09 08:22:12;;;;;;;13.05;5.10;;;;;;;18.13;53.89;99074.75;5094497;28;20401;-47
2022/10/09 08:24:38;;;;;;;17.05;5.60;;;;;;;18.18;53.47;99082.78;5095748;28;20030;-48
2022/10/09 08:27:05;;;;;;;17.08;5.20;;;;;;;18.19;53.67;99075.63;5095692;28;20027;-47
2022/10/09 08:29:31;;;;;;;7.22;4.13;;;;;;;18.06;53.64;99085.50;5094296;28;20406;-48
2022/10/09 08:31:57;;;;;;;9.48;4.43;;;;;;;17.87;53.93;99084.13;5095648;28;20024;-47
2022/10/09 08:34:22;;;;;;;16.27;4.60;;;;;;;17.90;54.80;99079.13;5094277;28;20077;-47
2022/10/09 08:36:48;;;;;;;11.15;3.97;;;;;;;18.55;53.66;99090.28;5095549;28;20021;-47
2022/10/09 08:39:14;;;;;;;16.83;4.22;;;;;;;19.71;51.38;99078.81;5095531;28;20111;-47
2022/10/09 08:41:48;;;;;;;11.27;4.00;;;;;;;21.03;49.11;99069.47;5095413;28;20385;-45
2022/10/09 08:44:21;;;;;;;11.40;4.70;;;;;;;22.28;45.78;99075.72;5094075;28;20024;-45
2022/10/09 08:46:47;;;;;;;8.40;4.35;;;;;;;23.08;43.12;99067.06;5095381;28;20509;-45
2022/10/09 08:49:29;;;;;;;9.07;3.63;;;;;;;23.01;42.62;99069.19;5095368;28;20034;-45
2022/10/09 08:51:57;;;;;;;12.85;3.92;;;;;;;22.77;42.84;99060.16;5094005;28;20084;-45
2022/10/09 08:54:38;;;;;;;11.18;4.65;;;;;;;22.70;43.00;99063.13;5095436;28;20028;-45
2022/10/09 08:57:11;;;;;;;5.97;2.97;;;;;;;23.70;41.60;99054.16;5095125;28;20023;-46
2022/10/09 08:59:37;;;;;;;12.32;3.88;;;;;;;24.24;39.88;99047.06;5093879;28;20024;-46
2022/10/09 09:02:23;;;;;;;8.10;3.47;;;;;;;24.25;40.20;99055.94;5095029;28;20115;-46
2022/10/09 09:05:05;;;;;;;6.72;3.33;;;;;;;24.32;39.13;99049.16;5094944;28;20024;-46
2022/10/09 09:08:02;;;;;;;7.63;3.13;;;;;;;24.49;39.08;99047.94;5094968;28;20426;-46
2022/10/09 09:11:00;;;;;;;10.75;3.45;;;;;;;23.99;40.03;99047.31;5095178;28;20019;-46
2022/10/09 09:13:46;;;;;;;9.18;3.20;;;;;;;24.81;38.85;99047.38;5094916;28;20040;-46
2022/10/09 09:16:48;;;;;;;8.25;2.95;;;;;;;25.09;38.04;99044.91;5094884;28;20023;-46
2022/10/09 09:19:39;;;;;;;10.70;2.95;;;;;;;25.49;37.47;99045.47;5090015;28;20040;-46
2022/10/09 09:22:13;;;;;;;8.60;2.92;;;;;;;25.71;36.55;99047.59;5095024;28;20582;-46
2022/10/09 09:24:51;;;;;;;7.68;3.13;;;;;;;26.24;35.65;99035.75;5094887;28;20390;-47
2022/10/09 09:27:33;;;;;;;6.10;2.60;;;;;;;26.81;34.69;99025.59;5094591;28;20020;-47
2022/10/09 09:30:11;;;;;;;13.00;3.30;;;;;;;27.20;34.60;99032.34;5093388;28;20160;-47
2022/10/09 09:32:43;;;;;;;7.57;2.70;;;;;;;26.98;34.28;99024.19;5094496;28;20024;-47
2022/10/09 09:35:21;;;;;;;7.10;3.50;;;;;;;26.82;34.43;99021.84;5094451;28;20060;-47
2022/10/09 09:37:46;;;;;;;6.80;2.78;;;;;;;26.79;33.74;99027.81;5094501;28;20058;-46
2022/10/09 09:40:15;;;;;;;9.07;3.15;;;;;;;26.62;34.82;99023.03;5094335;28;20024;-46
2022/10/09 09:42:41;;;;;;;8.98;3.05;;;;;;;26.79;34.13;99022.41;5094322;28;20077;-47
2022/10/09 09:45:21;;;;;;;6.93;3.17;;;;;;;27.06;33.58;99015.41;5094201;28;20024;-46
2022/10/09 09:48:05;;;;;;;6.38;3.28;;;;;;;27.16;33.80;99020.59;5094318;28;20032;-46
2022/10/09 09:50:38;;;;;;;16.02;3.40;;;;;;;27.47;33.54;99014.56;5094232;28;20032;-47
2022/10/09 09:53:22;;;;;;;6.55;2.65;;;;;;;27.62;32.61;99011.50;5094374;28;20508;-46
2022/10/09 09:55:52;;;;;;;6.72;3.58;;;;;;;27.59;32.97;99009.44;5094123;28;20032;-46
2022/10/09 09:58:20;;;;;;;6.60;3.10;;;;;;;27.77;32.41;98996.88;5093026;28;20063;-46
2022/10/09 10:01:01;;;;;;;7.00;2.60;;;;;;;27.99;32.40;98995.28;5093954;28;20032;-46
2022/10/09 10:03:28;;;;;;;6.93;3.17;;;;;;;27.81;32.46;98994.34;5094173;28;20028;-46
2022/10/09 10:05:54;;;;;;;10.23;3.40;;;;;;;27.45;32.90;99006.00;5093715;28;20027;-46
2022/10/09 10:08:27;;;;;;;10.98;3.35;;;;;;;27.49;33.21;98996.19;5092473;28;20417;-46
2022/10/09 10:10:56;;;;;;;5.57;3.17;;;;;;;27.96;32.04;98994.03;5093762;28;20024;-46
2022/10/09 10:13:46;;;;;;;7.85;3.42;;;;;;;28.59;31.31;98988.63;5093702;28;20367;-46
2022/10/09 10:16:26;;;;;;;10.50;3.45;;;;;;;29.19;30.61;98987.22;5093667;28;20031;-46
2022/10/09 10:18:55;;;;;;;8.60;3.10;;;;;;;29.07;30.19;98985.09;5093468;28;20480;-47
2022/10/09 10:21:21;;;;;;;6.20;2.85;;;;;;;29.43;29.92;98982.13;5093466;28;20020;-47
2022/10/09 10:24:02;;;;;;;14.38;3.60;;;;;;;29.63;29.84;98988.03;5093760;28;20039;-47
2022/10/09 10:26:40;;;;;;;9.25;3.63;;;;;;;29.37;29.89;98975.31;5092053;28;20020;-46
2022/10/09 10:29:19;;;;;;;7.85;3.47;;;;;;;29.49;29.71;98971.97;5093497;28;20040;-46
2022/10/09 10:32:15;;;;;;;7.95;3.15;;;;;;;29.71;29.43;98962.91;5092524;28;20055;-46
2022/10/09 10:34:56;;;;;;;7.40;3.17;;;;;;;30.09;28.53;98964.09;5091755;28;20043;-47
2022/10/09 10:37:37;;;;;;;8.32;2.97;;;;;;;29.87;29.04;98963.19;5093253;28;20103;-46
2022/10/09 10:40:30;;;;;;;6.38;2.90;;;;;;;30.29;28.56;98957.19;5093195;28;20043;-46
2022/10/09 10:43:08;;;;;;;5.15;2.70;;;;;;;30.60;28.23;98954.19;5093273;28;20054;-47
2022/10/09 10:45:43;;;;;;;5.18;2.90;;;;;;;30.70;28.10;98948.41;5092992;28;20509;-47
2022/10/09 10:48:18;;;;;;;10.30;3.10;;;;;;;30.55;27.78;98946.28;5091721;28;20440;-47
2022/10/09 10:51:19;;;;;;;5.40;2.75;;;;;;;29.45;28.98;98944.75;5093477;28;20031;-46
2022/10/09 10:54:16;;;;;;;6.03;2.85;;;;;;;29.08;29.45;98940.75;5093053;28;20088;-46
2022/10/09 10:56:41;;;;;;;5.97;2.78;;;;;;;29.15;29.81;98933.00;5092950;28;20099;-46
2022/10/09 10:59:13;;;;;;;7.22;3.20;;;;;;;29.30;29.33;98925.50;5092814;28;20047;-46
2022/10/09 11:02:13;;;;;;;14.45;7.30;;;;;;;29.14;29.88;98931.41;5091521;28;20028;-46
2022/10/09 11:04:41;;;;;;;13.32;4.95;;;;;;;28.55;30.66;98926.34;5092932;28;20532;-46
2022/10/09 11:07:19;;;;;;;10.10;3.35;;;;;;;28.54;31.42;98923.97;5092842;28;20059;-46
2022/10/09 11:10:01;;;;;;;7.53;3.17;;;;;;;28.94;30.44;98923.91;5091389;28;20020;-47
2022/10/09 11:12:35;;;;;;;6.78;3.05;;;;;;;29.13;30.27;98920.91;5092669;28;20563;-46
2022/10/09 11:15:23;;;;;;;8.15;3.13;;;;;;;29.48;29.99;98905.47;5092555;28;20043;-46
2022/10/09 11:18:27;;;;;;;8.77;3.42;;;;;;;29.60;29.82;98911.03;5090996;28;20417;-46
2022/10/09 11:21:20;;;;;;;6.32;2.95;;;;;;;28.79;30.99;98917.03;5091565;28;20112;-46
2022/10/09 11:24:15;;;;;;;8.60;3.63;;;;;;;28.49;31.43;98906.78;5092497;28;20032;-46
2022/10/09 11:26:58;;;;;;;10.90;3.63;;;;;;;28.56;31.73;98903.66;5092356;28;20081;-46
2022/10/09 11:29:43;;;;;;;9.55;3.30;;;;;;;29.17;31.22;98903.75;5091040;28;20074;-46
2022/10/09 11:32:30;;;;;;;9.30;3.70;;;;;;;29.12;30.72;98900.41;5092298;28;20048;-46
2022/10/09 11:35:11;;;;;;;8.85;3.25;;;;;;;29.05;30.83;98890.03;5091224;28;20507;-46
2022/10/09 11:37:39;;;;;;;4.97;2.80;;;;;;;28.91;31.42;98892.09;5092198;28;20043;-46
2022/10/09 11:40:19;;;;;;;6.43;2.97;;;;;;;28.84;31.23;98890.66;5090780;28;20024;-46
2022/10/09 11:42:59;;;;;;;7.35;3.05;;;;;;;28.63;31.70;98885.09;5092287;28;20378;-46
2022/10/09 11:45:33;;;;;;;10.60;3.50;;;;;;;28.42;31.90;98879.44;5092055;28;20111;-46
2022/10/09 11:48:18;;;;;;;12.30;3.75;;;;;;;28.30;32.36;98876.56;5092421;28;20387;-46